createdAt,value
2019-01-14T00:00:40.005Z,2.67
2019-01-14T00:03:09.071Z,2.67
2019-01-14T00:05:37.687Z,2.93
2019-01-14T00:08:06.649Z,3.23
2019-01-14T00:10:35.640Z,3.03
2019-01-14T00:13:04.344Z,2.57
2019-01-14T00:15:33.525Z,2.60
2019-01-14T00:18:02.528Z,2.93
2019-01-14T00:20:31.232Z,2.53
2019-01-14T00:23:00.097Z,1.83
2019-01-14T00:25:29.090Z,1.80
2019-01-14T00:27:57.809Z,1.40
2019-01-14T00:30:26.431Z,2.00
2019-01-14T00:32:55.033Z,1.93
2019-01-14T00:35:23.743Z,2.27
2019-01-14T00:37:52.343Z,2.50
2019-01-14T00:40:21.617Z,2.17
2019-01-14T00:42:50.339Z,2.67
2019-01-14T00:45:19.038Z,2.60
2019-01-14T00:47:47.882Z,2.53
2019-01-14T00:50:16.972Z,1.90
2019-01-14T00:52:45.651Z,2.00
2019-01-14T00:55:14.663Z,1.70
2019-01-14T00:57:43.655Z,1.67
2019-01-14T01:00:18.789Z,2.00
2019-01-14T01:02:48.085Z,1.53
2019-01-14T01:05:16.687Z,1.50
2019-01-14T01:07:45.874Z,1.73
2019-01-14T01:10:15.786Z,1.30
2019-01-14T01:12:44.933Z,1.40
2019-01-14T01:15:15.618Z,2.07
2019-01-14T01:17:45.001Z,2.17
2019-01-14T01:20:16.873Z,1.47
2019-01-14T01:22:45.819Z,1.70
2019-01-14T01:25:14.587Z,2.30
2019-01-14T01:27:43.338Z,2.13
2019-01-14T01:30:15.113Z,2.37
2019-01-14T01:32:44.106Z,2.60
2019-01-14T01:35:13.674Z,2.27
2019-01-14T01:37:42.381Z,1.97
2019-01-14T01:40:14.465Z,2.27
2019-01-14T01:42:43.665Z,2.40
2019-01-14T01:45:12.567Z,3.07
2019-01-14T01:47:41.553Z,2.60
2019-01-14T01:50:11.945Z,2.90
2019-01-14T01:52:40.568Z,2.87
2019-01-14T01:55:09.554Z,3.00
2019-01-14T01:57:38.235Z,2.10
2019-01-14T02:00:10.117Z,2.90
2019-01-14T02:02:38.723Z,2.70
2019-01-14T02:05:08.234Z,2.60
2019-01-14T02:07:36.832Z,2.70
2019-01-14T02:10:07.610Z,1.80
2019-01-14T02:12:36.513Z,2.10
2019-01-14T02:15:06.015Z,2.10
2019-01-14T02:17:34.900Z,2.07
2019-01-14T02:20:03.967Z,2.50
2019-01-14T02:22:32.891Z,1.97
2019-01-14T02:25:01.499Z,2.33
2019-01-14T02:27:30.123Z,2.33
2019-01-14T02:29:58.743Z,2.83
2019-01-14T02:32:27.633Z,2.90
2019-01-14T02:34:56.527Z,2.23
2019-01-14T02:37:25.136Z,2.63
2019-01-14T02:39:54.104Z,2.30
2019-01-14T02:42:22.815Z,3.33
2019-01-14T02:44:51.775Z,2.60
2019-01-14T02:47:20.391Z,2.53
2019-01-14T02:49:49.017Z,2.50
2019-01-14T02:52:17.945Z,3.10
2019-01-14T02:54:46.834Z,2.77
2019-01-14T02:57:16.139Z,2.07
2019-01-14T02:59:45.030Z,2.00
2019-01-14T03:02:13.918Z,2.63
2019-01-14T03:04:42.914Z,2.93
2019-01-14T03:07:12.725Z,2.10
2019-01-14T03:09:41.408Z,2.40
2019-01-14T03:12:10.043Z,2.30
2019-01-14T03:14:38.666Z,2.27
2019-01-14T03:17:07.333Z,1.50
2019-01-14T03:19:36.571Z,1.93
2019-01-14T03:22:05.562Z,1.60
2019-01-14T03:24:34.864Z,1.17
2019-01-14T03:27:03.487Z,2.20
2019-01-14T03:29:32.095Z,1.90
2019-01-14T03:32:01.129Z,2.13
2019-01-14T03:34:30.122Z,2.00
2019-01-14T03:37:05.278Z,2.27
2019-01-14T03:39:29.644Z,1.70
2019-01-14T03:41:58.840Z,2.30
2019-01-14T03:44:28.059Z,2.60
2019-01-14T03:46:56.662Z,1.80
2019-01-14T03:49:25.520Z,2.10
2019-01-14T03:51:54.423Z,2.53
2019-01-14T03:54:23.090Z,2.10
2019-01-14T03:56:51.697Z,2.47
2019-01-14T03:59:20.682Z,2.93
2019-01-14T04:01:49.680Z,2.57
2019-01-14T04:04:18.565Z,2.33
2019-01-14T04:06:47.446Z,2.23
2019-01-14T04:09:16.311Z,1.80
2019-01-14T04:11:45.546Z,2.57
2019-01-14T04:14:14.461Z,2.00
2019-01-14T04:16:43.060Z,2.60
2019-01-14T04:19:12.015Z,2.93
2019-01-14T04:21:40.658Z,1.70
2019-01-14T04:24:09.553Z,2.33
2019-01-14T04:26:38.483Z,2.10
2019-01-14T04:29:07.119Z,2.27
2019-01-14T04:31:36.072Z,2.63
2019-01-14T04:34:05.060Z,2.53
2019-01-14T04:36:33.759Z,2.13
2019-01-14T04:39:04.682Z,2.00
2019-01-14T04:41:33.283Z,2.13
2019-01-14T04:44:01.905Z,2.37
2019-01-14T04:46:30.498Z,2.50
2019-01-14T04:48:59.421Z,3.13
2019-01-14T04:51:28.828Z,2.40
2019-01-14T04:53:57.719Z,2.97
2019-01-14T04:56:26.603Z,2.03
2019-01-14T04:58:55.496Z,1.93
2019-01-14T05:01:24.219Z,2.30
2019-01-14T05:03:52.835Z,3.07
2019-01-14T05:06:22.988Z,2.80
2019-01-14T05:08:51.833Z,1.83
2019-01-14T05:11:20.771Z,2.03
2019-01-14T05:13:49.380Z,2.67
2019-01-14T05:16:18.065Z,2.23
2019-01-14T05:18:46.664Z,1.90
2019-01-14T05:21:15.619Z,2.00
2019-01-14T05:23:44.506Z,2.00
2019-01-14T05:26:13.148Z,2.80
2019-01-14T05:28:41.810Z,2.10
2019-01-14T05:31:10.672Z,3.30
2019-01-14T05:33:39.668Z,1.90
2019-01-14T05:36:08.283Z,1.83
2019-01-14T05:38:36.882Z,1.87
2019-01-14T05:41:06.236Z,1.63
2019-01-14T05:43:36.338Z,3.03
2019-01-14T05:46:05.208Z,2.23
2019-01-14T05:48:34.148Z,2.03
2019-01-14T05:51:03.137Z,2.47
2019-01-14T05:53:31.727Z,2.80
2019-01-14T05:56:00.927Z,2.90
2019-01-14T05:58:29.817Z,1.70
2019-01-14T06:00:58.708Z,2.30
2019-01-14T06:03:27.432Z,1.60
2019-01-14T06:05:56.701Z,2.67
2019-01-14T06:08:25.640Z,1.93
2019-01-14T06:10:54.580Z,2.47
2019-01-14T06:13:23.228Z,2.23
2019-01-14T06:15:51.959Z,2.27
2019-01-14T06:18:20.555Z,1.90
2019-01-14T06:20:49.833Z,1.73
2019-01-14T06:23:18.521Z,1.80
2019-01-14T06:25:47.410Z,2.03
2019-01-14T06:28:16.300Z,1.33
2019-01-14T06:30:44.927Z,1.37
2019-01-14T06:33:13.881Z,1.60
2019-01-14T06:35:42.511Z,1.47
2019-01-14T06:38:11.559Z,2.83
2019-01-14T06:40:40.181Z,1.90
2019-01-14T06:43:09.441Z,1.90
2019-01-14T06:45:38.437Z,2.53
2019-01-14T06:48:07.140Z,1.90
2019-01-14T06:50:35.811Z,2.13
2019-01-14T06:53:04.900Z,1.83
2019-01-14T06:55:33.515Z,2.10
2019-01-14T06:58:02.205Z,1.37
2019-01-14T07:00:30.943Z,1.53
2019-01-14T07:02:59.958Z,1.80
2019-01-14T07:05:28.643Z,2.27
2019-01-14T07:07:59.784Z,1.03
2019-01-14T07:10:30.093Z,1.33
2019-01-14T07:12:58.878Z,1.80
2019-01-14T07:15:27.586Z,1.57
2019-01-14T07:17:56.215Z,1.90
2019-01-14T07:20:24.878Z,2.10
2019-01-14T07:22:53.762Z,1.40
2019-01-14T07:25:22.481Z,1.47
2019-01-14T07:27:51.439Z,2.00
2019-01-14T07:30:21.456Z,2.00
2019-01-14T07:32:50.188Z,1.80
2019-01-14T07:35:19.047Z,1.77
2019-01-14T07:37:48.140Z,1.60
2019-01-14T07:40:17.424Z,1.83
2019-01-14T07:42:46.050Z,1.23
2019-01-14T07:45:16.036Z,1.67
2019-01-14T07:47:44.919Z,1.17
2019-01-14T07:50:14.770Z,1.60
2019-01-14T07:52:43.824Z,1.43
2019-01-14T07:55:12.533Z,1.90
2019-01-14T07:57:41.206Z,1.07
2019-01-14T08:00:22.258Z,1.13
2019-01-14T08:02:51.082Z,1.40
2019-01-14T08:05:19.957Z,1.20
2019-01-14T08:07:48.662Z,1.10
2019-01-14T08:10:18.252Z,1.60
2019-01-14T08:12:47.243Z,1.57
2019-01-14T08:15:17.980Z,1.43
2019-01-14T08:17:46.670Z,1.20
2019-01-14T08:20:15.355Z,1.63
2019-01-14T08:22:44.054Z,1.90
2019-01-14T08:25:13.399Z,1.40
2019-01-14T08:27:42.843Z,2.00
2019-01-14T08:30:19.623Z,1.60
2019-01-14T08:32:48.715Z,1.63
2019-01-14T08:35:17.930Z,1.10
2019-01-14T08:37:46.659Z,1.70
2019-01-14T08:40:16.371Z,1.60
2019-01-14T08:42:45.734Z,1.50
2019-01-14T08:45:14.811Z,1.57
2019-01-14T08:47:43.602Z,1.65
2019-01-14T08:50:14.673Z,1.40
2019-01-14T08:52:43.738Z,1.87
2019-01-14T08:55:12.505Z,1.90
2019-01-14T08:57:41.174Z,1.67
2019-01-14T09:00:13.531Z,1.23
2019-01-14T09:02:42.139Z,2.30
2019-01-14T09:05:11.263Z,1.50
2019-01-14T09:07:40.154Z,1.37
2019-01-14T09:10:12.323Z,2.40
2019-01-14T09:12:41.625Z,1.57
2019-01-14T09:15:11.695Z,1.53
2019-01-14T09:17:40.581Z,1.50
2019-01-14T09:20:12.909Z,1.35
2019-01-14T09:22:41.660Z,2.00
2019-01-14T09:25:10.263Z,1.83
2019-01-14T09:27:38.890Z,1.47
2019-01-14T09:30:12.309Z,1.30
2019-01-14T09:32:41.250Z,1.27
2019-01-14T09:35:09.945Z,1.33
2019-01-14T09:37:38.550Z,1.17
2019-01-14T09:40:09.691Z,1.53
2019-01-14T09:42:38.563Z,1.27
2019-01-14T09:45:07.217Z,1.17
2019-01-14T09:47:36.144Z,1.37
2019-01-14T09:50:07.398Z,1.67
2019-01-14T09:52:36.586Z,1.50
2019-01-14T09:55:06.994Z,1.37
2019-01-14T09:57:35.616Z,1.20
2019-01-14T10:00:06.696Z,1.37
2019-01-14T10:02:35.618Z,1.30
2019-01-14T10:05:05.178Z,1.17
2019-01-14T10:07:34.134Z,1.03
2019-01-14T10:10:03.142Z,1.03
2019-01-14T10:12:32.099Z,1.37
2019-01-14T10:15:00.988Z,1.37
2019-01-14T10:17:30.820Z,1.23
2019-01-14T10:19:59.710Z,1.87
2019-01-14T10:22:28.604Z,1.60
2019-01-14T10:24:57.905Z,1.17
2019-01-14T10:27:26.517Z,1.83
2019-01-14T10:29:55.112Z,1.60
2019-01-14T10:32:23.966Z,1.57
2019-01-14T10:34:52.852Z,1.60
2019-01-14T10:37:22.854Z,1.60
2019-01-14T10:39:52.173Z,1.40
2019-01-14T10:42:20.793Z,1.63
2019-01-14T10:44:49.467Z,1.30
2019-01-14T10:47:18.440Z,1.57
2019-01-14T10:49:47.079Z,1.20
2019-01-14T10:52:15.659Z,1.43
2019-01-14T10:54:44.264Z,1.33
2019-01-14T10:57:12.875Z,1.90
2019-01-14T10:59:41.767Z,1.50
2019-01-14T11:02:10.463Z,1.50
2019-01-14T11:04:39.438Z,1.00
2019-01-14T11:07:08.341Z,2.07
2019-01-14T11:09:36.973Z,1.30
2019-01-14T11:12:05.889Z,0.97
2019-01-14T11:14:34.572Z,1.17
2019-01-14T11:17:03.199Z,1.13
2019-01-14T11:19:31.813Z,1.77
2019-01-14T11:22:00.764Z,1.63
2019-01-14T11:24:49.833Z,1.30
2019-01-14T11:27:19.546Z,1.23
2019-01-14T11:29:54.858Z,1.47
2019-01-14T11:32:24.107Z,1.20
2019-01-14T11:34:53.081Z,1.37
2019-01-14T11:37:22.045Z,1.57
2019-01-14T11:39:50.658Z,1.20
2019-01-14T11:42:19.620Z,1.23
2019-01-14T11:44:48.215Z,1.30
2019-01-14T11:47:17.121Z,1.43
2019-01-14T11:49:46.013Z,1.03
2019-01-14T11:52:14.606Z,0.90
2019-01-14T11:54:43.306Z,1.57
2019-01-14T11:57:11.981Z,0.93
2019-01-14T11:59:40.947Z,1.30
2019-01-14T12:02:09.637Z,1.37
2019-01-14T12:04:38.549Z,1.30
2019-01-14T12:07:07.168Z,0.80
2019-01-14T12:09:36.428Z,1.53
2019-01-14T12:12:05.238Z,1.13
2019-01-14T12:14:33.845Z,1.70
2019-01-14T12:17:02.454Z,1.60
2019-01-14T12:19:31.507Z,1.57
2019-01-14T12:22:00.474Z,1.30
2019-01-14T12:24:29.466Z,1.50
2019-01-14T12:26:58.071Z,1.53
2019-01-14T12:29:26.762Z,1.30
2019-01-14T12:31:55.360Z,1.23
2019-01-14T12:34:24.316Z,1.60
2019-01-14T12:36:52.938Z,1.47
2019-01-14T12:39:21.900Z,1.40
2019-01-14T12:41:51.156Z,1.20
2019-01-14T12:44:20.047Z,1.70
2019-01-14T12:46:48.666Z,1.53
2019-01-14T12:49:17.560Z,1.63
2019-01-14T12:51:46.207Z,1.40
2019-01-14T12:54:15.141Z,1.40
2019-01-14T12:56:44.375Z,1.70
2019-01-14T12:59:13.331Z,1.30
2019-01-14T13:01:42.012Z,1.43
2019-01-14T13:04:11.220Z,1.70
2019-01-14T13:06:39.887Z,1.50
2019-01-14T13:09:10.138Z,1.97
2019-01-14T13:11:39.028Z,1.10
2019-01-14T13:14:08.022Z,1.20
2019-01-14T13:16:36.975Z,1.40
2019-01-14T13:19:05.657Z,1.23
2019-01-14T13:21:34.299Z,1.50
2019-01-14T13:24:03.289Z,1.70
2019-01-14T13:26:32.262Z,1.40
2019-01-14T13:29:01.164Z,1.40
2019-01-14T13:31:30.061Z,1.67
2019-01-14T13:33:58.698Z,1.77
2019-01-14T13:36:27.309Z,2.03
2019-01-14T13:38:55.928Z,1.40
2019-01-14T13:41:25.106Z,1.43
2019-01-14T13:43:53.699Z,1.27
2019-01-14T13:46:26.313Z,1.80
2019-01-14T13:48:53.421Z,1.57
2019-01-14T13:51:22.307Z,1.10
2019-01-14T13:53:50.915Z,1.20
2019-01-14T13:56:19.542Z,1.20
2019-01-14T13:58:48.777Z,1.40
2019-01-14T14:01:17.384Z,1.40
2019-01-14T14:03:46.276Z,1.60
2019-01-14T14:06:15.556Z,1.63
2019-01-14T14:08:44.447Z,1.20
2019-01-14T14:11:13.154Z,1.27
2019-01-14T14:13:42.124Z,1.30
2019-01-14T14:16:10.743Z,1.23
2019-01-14T14:18:39.355Z,1.53
2019-01-14T14:21:07.959Z,1.77
2019-01-14T14:23:36.583Z,1.60
2019-01-14T14:26:05.288Z,1.57
2019-01-14T14:28:34.243Z,1.10
2019-01-14T14:31:03.232Z,1.50
2019-01-14T14:33:31.835Z,1.70
2019-01-14T14:36:00.712Z,1.10
2019-01-14T14:38:29.705Z,1.40
2019-01-14T14:40:58.569Z,1.23
2019-01-14T14:43:27.484Z,1.47
2019-01-14T14:45:56.123Z,1.50
2019-01-14T14:48:24.771Z,1.17
2019-01-14T14:50:53.723Z,1.20
2019-01-14T14:53:22.638Z,1.17
2019-01-14T14:55:51.544Z,1.60
2019-01-14T14:58:20.831Z,1.27
2019-01-14T15:00:49.540Z,1.80
2019-01-14T15:03:18.151Z,1.23
2019-01-14T15:05:46.847Z,1.30
2019-01-14T15:08:16.089Z,0.90
2019-01-14T15:10:45.087Z,1.97
2019-01-14T15:13:13.987Z,1.43
2019-01-14T15:15:42.865Z,1.90
2019-01-14T15:18:11.760Z,1.53
2019-01-14T15:20:40.381Z,1.90
2019-01-14T15:23:08.982Z,1.80
2019-01-14T15:25:37.921Z,2.27
2019-01-14T15:28:06.912Z,1.97
2019-01-14T15:30:35.914Z,1.50
2019-01-14T15:33:05.010Z,2.23
2019-01-14T15:35:33.701Z,2.13
2019-01-14T15:38:02.586Z,1.80
2019-01-14T15:40:31.486Z,2.13
2019-01-14T15:43:00.181Z,2.10
2019-01-14T15:45:28.893Z,2.20
2019-01-14T15:47:57.963Z,2.00
2019-01-14T15:50:27.439Z,2.67
2019-01-14T15:52:56.344Z,1.43
2019-01-14T15:55:26.691Z,2.37
2019-01-14T15:57:55.774Z,2.40
2019-01-14T16:00:24.899Z,1.77
2019-01-14T16:02:53.901Z,1.90
2019-01-14T16:05:22.581Z,2.20
2019-01-14T16:07:51.518Z,1.80
2019-01-14T16:10:22.164Z,2.07
2019-01-14T16:12:50.789Z,2.10
2019-01-14T16:15:19.741Z,1.87
2019-01-14T16:17:48.717Z,1.97
2019-01-14T16:20:19.571Z,2.60
2019-01-14T16:22:48.346Z,2.00
2019-01-14T16:25:16.969Z,2.10
2019-01-14T16:27:45.629Z,2.67
2019-01-14T16:30:17.001Z,2.47
2019-01-14T16:32:45.593Z,2.77
2019-01-14T16:35:14.383Z,1.93
2019-01-14T16:37:43.024Z,2.60
2019-01-14T16:40:17.913Z,3.43
2019-01-14T16:42:42.668Z,2.40
2019-01-14T16:45:17.802Z,2.23
2019-01-14T16:47:46.513Z,2.17
2019-01-14T16:50:15.975Z,2.23
2019-01-14T16:52:44.994Z,1.77
2019-01-14T16:55:16.341Z,2.53
2019-01-14T16:57:44.965Z,2.27
2019-01-14T17:00:16.668Z,1.50
2019-01-14T17:02:45.675Z,3.10
2019-01-14T17:05:14.927Z,2.37
2019-01-14T17:07:43.970Z,1.80
2019-01-14T17:10:13.912Z,1.63
2019-01-14T17:12:42.883Z,2.30
2019-01-14T17:15:12.278Z,2.90
2019-01-14T17:17:40.955Z,2.00
2019-01-14T17:20:13.529Z,2.20
2019-01-14T17:22:42.738Z,2.57
2019-01-14T17:25:11.413Z,2.00
2019-01-14T17:27:40.426Z,2.80
2019-01-14T17:30:10.828Z,2.20
2019-01-14T17:32:39.929Z,2.53
2019-01-14T17:35:08.942Z,2.57
2019-01-14T17:37:37.678Z,2.53
2019-01-14T17:40:09.221Z,2.50
2019-01-14T17:42:38.172Z,3.00
2019-01-14T17:45:08.282Z,2.17
2019-01-14T17:47:37.069Z,2.03
2019-01-14T17:50:08.282Z,2.87
2019-01-14T17:52:37.223Z,3.20
2019-01-14T17:55:06.640Z,2.10
2019-01-14T17:57:35.329Z,2.73
2019-01-14T18:00:05.253Z,3.00
2019-01-14T18:02:34.217Z,2.00
2019-01-14T18:05:03.313Z,2.43
2019-01-14T18:07:32.322Z,2.07
2019-01-14T18:10:01.244Z,2.53
2019-01-14T18:12:29.864Z,2.43
2019-01-14T18:14:58.652Z,2.40
2019-01-14T18:17:27.570Z,2.17
2019-01-14T18:19:56.561Z,2.00
2019-01-14T18:22:25.160Z,2.70
2019-01-14T18:24:54.457Z,2.20
2019-01-14T18:27:23.089Z,2.03
2019-01-14T18:29:51.706Z,3.33
2019-01-14T18:32:20.612Z,1.80
2019-01-14T18:34:49.607Z,3.33
2019-01-14T18:37:18.492Z,2.47
2019-01-14T18:39:47.692Z,2.40
2019-01-14T18:42:16.580Z,1.97
2019-01-14T18:44:45.199Z,2.60
2019-01-14T18:47:14.164Z,1.57
2019-01-14T18:49:43.050Z,2.10
2019-01-14T18:52:12.045Z,3.03
2019-01-14T18:54:40.687Z,3.13
2019-01-14T18:57:09.634Z,2.50
2019-01-14T18:59:38.625Z,2.80
2019-01-14T19:02:07.288Z,3.27
2019-01-14T19:04:35.898Z,3.20
2019-01-14T19:07:05.041Z,2.70
2019-01-14T19:09:34.302Z,2.10
2019-01-14T19:12:02.988Z,2.83
2019-01-14T19:14:31.601Z,1.70
2019-01-14T19:17:00.337Z,2.20
2019-01-14T19:19:29.236Z,2.97
2019-01-14T19:21:58.126Z,2.67
2019-01-14T19:24:27.019Z,2.40
2019-01-14T19:26:55.923Z,2.20
2019-01-14T19:29:24.804Z,2.00
2019-01-14T19:31:53.814Z,1.70
2019-01-14T19:34:23.196Z,2.27
2019-01-14T19:36:51.783Z,3.20
2019-01-14T19:39:20.510Z,1.87
2019-01-14T19:41:49.122Z,2.33
2019-01-14T19:44:17.724Z,2.00
2019-01-14T19:46:46.628Z,2.20
2019-01-14T19:49:15.261Z,1.77
2019-01-14T19:51:44.363Z,2.23
2019-01-14T19:54:13.306Z,2.07
2019-01-14T19:56:42.032Z,1.70
2019-01-14T19:59:10.985Z,2.40
2019-01-14T20:01:39.734Z,1.73
2019-01-14T20:04:08.768Z,2.17
2019-01-14T20:06:37.661Z,2.37
2019-01-14T20:09:07.595Z,2.63
2019-01-14T20:11:36.601Z,3.47
2019-01-14T20:14:05.289Z,2.10
2019-01-14T20:16:34.247Z,2.83
2019-01-14T20:19:02.873Z,2.50
2019-01-14T20:21:31.808Z,2.90
2019-01-14T20:24:01.469Z,2.67
2019-01-14T20:26:30.328Z,1.97
2019-01-14T20:28:59.099Z,2.53
2019-01-14T20:31:28.106Z,2.43
2019-01-14T20:33:57.101Z,2.30
2019-01-14T20:36:26.230Z,2.50
2019-01-14T20:38:55.192Z,2.87
2019-01-14T20:41:24.139Z,2.90
2019-01-14T20:43:53.002Z,3.00
2019-01-14T20:46:21.636Z,2.83
2019-01-14T20:48:50.246Z,3.13
2019-01-14T20:51:19.135Z,2.43
2019-01-14T20:53:48.553Z,2.33
2019-01-14T20:56:17.669Z,2.60
2019-01-14T20:58:46.453Z,3.10
2019-01-14T21:01:15.083Z,2.17
2019-01-14T21:03:44.105Z,2.97
2019-01-14T21:06:13.098Z,3.23
2019-01-14T21:08:41.991Z,3.40
2019-01-14T21:11:10.943Z,3.33
2019-01-14T21:13:39.876Z,2.93
2019-01-14T21:16:08.969Z,2.40
2019-01-14T21:18:37.965Z,1.77
2019-01-14T21:21:06.650Z,2.40
2019-01-14T21:23:35.338Z,2.63
2019-01-14T21:26:04.536Z,2.37
2019-01-14T21:28:33.163Z,2.93
2019-01-14T21:31:01.788Z,2.70
2019-01-14T21:33:30.722Z,2.53
2019-01-14T21:35:59.345Z,3.10
2019-01-14T21:38:28.584Z,3.43
2019-01-14T21:40:57.205Z,2.73
2019-01-14T21:43:26.157Z,2.37
2019-01-14T21:45:55.482Z,2.87
2019-01-14T21:48:24.354Z,2.57
2019-01-14T21:50:52.975Z,2.70
2019-01-14T21:53:21.604Z,2.40
2019-01-14T21:55:50.745Z,3.03
2019-01-14T21:58:19.344Z,2.60
2019-01-14T22:00:47.987Z,2.17
2019-01-14T22:03:17.289Z,3.20
2019-01-14T22:05:46.308Z,3.23
2019-01-14T22:08:15.091Z,2.60
2019-01-14T22:10:44.078Z,3.80
2019-01-14T22:13:12.684Z,2.40
2019-01-14T22:15:41.634Z,3.00
2019-01-14T22:18:10.626Z,2.90
2019-01-14T22:20:39.309Z,3.80
2019-01-14T22:23:08.304Z,2.93
2019-01-14T22:25:36.980Z,2.77
2019-01-14T22:28:05.737Z,2.83
2019-01-14T22:30:35.161Z,2.87
2019-01-14T22:33:03.975Z,2.50
2019-01-14T22:35:32.676Z,3.83
2019-01-14T22:38:01.711Z,3.47
2019-01-14T22:40:30.849Z,3.27
2019-01-14T22:42:59.499Z,3.07
2019-01-14T22:45:28.170Z,4.27
2019-01-14T22:47:57.111Z,3.20
2019-01-14T22:50:25.725Z,3.27
2019-01-14T22:52:54.422Z,3.20
2019-01-14T22:55:23.030Z,2.73
2019-01-14T22:57:51.646Z,3.13
2019-01-14T23:01:14.067Z,2.93
2019-01-14T23:03:45.148Z,3.17
2019-01-14T23:06:14.444Z,4.53
2019-01-14T23:08:43.637Z,3.17
2019-01-14T23:11:12.541Z,2.93
2019-01-14T23:13:41.426Z,2.50
2019-01-14T23:16:10.141Z,2.90
2019-01-14T23:18:38.742Z,3.93
2019-01-14T23:21:07.361Z,2.67
2019-01-14T23:23:36.008Z,3.63
2019-01-14T23:26:04.681Z,4.13
2019-01-14T23:28:33.292Z,3.30
2019-01-14T23:31:02.272Z,3.67
2019-01-14T23:33:30.853Z,2.97
2019-01-14T23:35:59.492Z,3.70
2019-01-14T23:38:28.400Z,3.47
2019-01-14T23:40:57.385Z,3.90
2019-01-14T23:43:26.276Z,2.90
2019-01-14T23:45:55.000Z,2.80
2019-01-14T23:48:23.858Z,2.87
2019-01-14T23:50:52.465Z,2.93
2019-01-14T23:53:21.090Z,2.93
2019-01-14T23:55:50.018Z,2.93
2019-01-14T23:58:19.322Z,3.00
